createdAt,value
2024-01-11T00:00:33.218Z,7.30
2024-01-11T00:03:00.267Z,7.85
2024-01-11T00:05:27.309Z,8.77
2024-01-11T00:07:54.431Z,6.68
2024-01-11T00:10:21.461Z,6.97
2024-01-11T00:12:48.356Z,6.15
2024-01-11T00:15:15.295Z,6.75
2024-01-11T00:17:42.449Z,6.20
2024-01-11T00:20:10.562Z,4.70
2024-01-11T00:22:37.617Z,4.57
2024-01-11T00:25:05.370Z,8.48
2024-01-11T00:27:32.147Z,6.20
2024-01-11T00:29:58.974Z,5.82
2024-01-11T00:32:25.719Z,7.22
2024-01-11T00:34:52.564Z,6.90
2024-01-11T00:37:19.266Z,6.15
2024-01-11T00:39:46.074Z,5.47
2024-01-11T00:42:12.778Z,5.20
2024-01-11T00:44:39.598Z,7.22
2024-01-11T00:47:06.561Z,7.75
2024-01-11T00:49:33.398Z,8.27
2024-01-11T00:52:00.239Z,6.45
2024-01-11T00:54:26.992Z,6.90
2024-01-11T00:56:53.760Z,6.68
2024-01-11T00:59:20.741Z,9.63
2024-01-11T01:01:50.757Z,6.65
2024-01-11T01:04:17.671Z,6.65
2024-01-11T01:06:44.904Z,7.28
2024-01-11T01:09:12.133Z,7.80
2024-01-11T01:11:38.989Z,6.47
2024-01-11T01:14:06.543Z,4.72
2024-01-11T01:16:33.408Z,6.15
2024-01-11T01:19:00.220Z,7.32
2024-01-11T01:21:27.152Z,8.07
2024-01-11T01:23:53.824Z,7.00
2024-01-11T01:26:21.442Z,7.45
2024-01-11T01:28:48.269Z,6.70
2024-01-11T01:31:15.372Z,8.45
2024-01-11T01:33:42.559Z,8.02
2024-01-11T01:36:13.181Z,7.55
2024-01-11T01:38:40.009Z,9.20
2024-01-11T01:41:06.860Z,6.93
2024-01-11T01:43:33.789Z,7.80
2024-01-11T01:46:01.301Z,4.75
2024-01-11T01:48:29.567Z,8.00
2024-01-11T01:50:57.025Z,6.22
2024-01-11T01:53:25.209Z,4.53
2024-01-11T01:55:53.719Z,6.95
2024-01-11T01:58:21.552Z,5.93
2024-01-11T02:00:50.910Z,5.15
2024-01-11T02:03:18.012Z,5.75
2024-01-11T02:05:45.005Z,7.03
2024-01-11T02:08:17.548Z,4.70
2024-01-11T02:10:44.594Z,5.95
2024-01-11T02:13:13.753Z,7.22
2024-01-11T02:15:40.824Z,6.65
2024-01-11T02:18:08.040Z,5.53
2024-01-11T02:20:35.069Z,7.25
2024-01-11T02:23:13.512Z,5.75
2024-01-11T02:25:40.210Z,3.70
2024-01-11T02:28:07.548Z,5.72
2024-01-11T02:30:34.322Z,4.85
2024-01-11T02:33:02.621Z,4.32
2024-01-11T02:35:29.843Z,5.32
2024-01-11T02:37:56.860Z,5.60
2024-01-11T02:40:24.037Z,6.55
2024-01-11T02:42:50.750Z,6.03
2024-01-11T02:45:17.478Z,5.30
2024-01-11T02:47:44.511Z,7.07
2024-01-11T02:50:13.343Z,6.55
2024-01-11T02:52:40.242Z,5.47
2024-01-11T02:55:07.268Z,9.27
2024-01-11T02:57:34.106Z,5.88
2024-01-11T03:00:00.911Z,6.47
2024-01-11T03:02:27.707Z,7.30
2024-01-11T03:04:54.446Z,5.53
2024-01-11T03:07:21.224Z,5.53
2024-01-11T03:09:48.050Z,6.35
2024-01-11T03:12:14.746Z,5.22
2024-01-11T03:14:41.710Z,5.93
2024-01-11T03:17:08.593Z,8.18
2024-01-11T03:19:39.790Z,6.03
2024-01-11T03:22:07.920Z,4.90
2024-01-11T03:24:39.209Z,5.45
2024-01-11T03:27:07.119Z,4.97
2024-01-11T03:29:34.757Z,4.60
2024-01-11T03:32:01.667Z,4.35
2024-01-11T03:34:28.588Z,5.50
2024-01-11T03:36:55.453Z,5.22
2024-01-11T03:39:22.389Z,4.97
2024-01-11T03:41:49.935Z,4.78
2024-01-11T03:44:16.800Z,6.63
2024-01-11T03:46:43.518Z,4.43
2024-01-11T03:49:10.876Z,5.13
2024-01-11T03:51:37.721Z,4.95
2024-01-11T03:54:04.616Z,6.15
2024-01-11T03:56:31.447Z,4.95
2024-01-11T03:58:58.352Z,3.72
2024-01-11T04:01:25.159Z,5.25
2024-01-11T04:03:52.270Z,3.10
2024-01-11T04:06:23.502Z,3.83
2024-01-11T04:08:51.126Z,4.55
2024-01-11T04:11:18.663Z,7.28
2024-01-11T04:13:45.468Z,5.18
2024-01-11T04:16:12.621Z,6.55
2024-01-11T04:18:39.949Z,7.05
2024-01-11T04:21:06.719Z,4.85
2024-01-11T04:23:33.489Z,6.18
2024-01-11T04:26:00.351Z,3.65
2024-01-11T04:28:27.063Z,4.28
2024-01-11T04:30:53.801Z,5.55
2024-01-11T04:33:20.690Z,4.57
2024-01-11T04:35:47.745Z,6.10
2024-01-11T04:38:14.532Z,6.82
2024-01-11T04:40:41.343Z,4.53
2024-01-11T04:43:10.036Z,3.75
2024-01-11T04:45:36.826Z,4.05
2024-01-11T04:48:03.986Z,4.13
2024-01-11T04:50:31.012Z,7.60
2024-01-11T04:52:57.839Z,5.30
2024-01-11T04:55:24.643Z,6.97
2024-01-11T04:57:51.362Z,4.65
2024-01-11T05:00:18.336Z,5.28
2024-01-11T05:02:45.181Z,5.68
2024-01-11T05:05:11.934Z,3.55
2024-01-11T05:07:38.866Z,4.70
2024-01-11T05:10:06.159Z,4.85
2024-01-11T05:12:32.839Z,6.75
2024-01-11T05:14:59.591Z,5.30
2024-01-11T05:17:27.814Z,3.22
2024-01-11T05:19:54.662Z,2.85
2024-01-11T05:22:22.796Z,3.40
2024-01-11T05:24:49.511Z,2.95
2024-01-11T05:27:16.273Z,6.38
2024-01-11T05:29:43.243Z,4.00
2024-01-11T05:32:10.168Z,6.03
2024-01-11T05:34:37.171Z,4.20
2024-01-11T05:37:04.049Z,5.97
2024-01-11T05:39:30.903Z,8.07
2024-01-11T05:41:57.639Z,4.82
2024-01-11T05:44:24.389Z,5.43
2024-01-11T05:46:51.163Z,5.18
2024-01-11T05:49:17.991Z,3.95
2024-01-11T05:51:44.822Z,6.60
2024-01-11T05:54:11.544Z,4.65
2024-01-11T05:56:38.355Z,4.10
2024-01-11T05:59:05.704Z,6.45
2024-01-11T06:01:33.159Z,5.70
2024-01-11T06:03:59.991Z,5.30
2024-01-11T06:06:26.689Z,4.60
2024-01-11T06:08:53.548Z,5.43
2024-01-11T06:11:20.623Z,4.95
2024-01-11T06:13:48.134Z,5.97
2024-01-11T06:16:15.024Z,4.88
2024-01-11T06:18:41.925Z,4.53
2024-01-11T06:21:08.830Z,4.85
2024-01-11T06:23:35.872Z,6.97
2024-01-11T06:26:02.716Z,4.78
2024-01-11T06:28:29.520Z,6.10
2024-01-11T06:30:56.815Z,5.88
2024-01-11T06:33:23.745Z,4.57
2024-01-11T06:35:50.735Z,4.30
2024-01-11T06:38:17.532Z,4.82
2024-01-11T06:49:45.081Z,5.57
2024-01-11T06:52:11.815Z,4.53
2024-01-11T06:54:38.488Z,4.10
2024-01-11T06:57:05.234Z,5.35
2024-01-11T06:59:31.987Z,3.30
2024-01-11T07:01:58.834Z,8.35
2024-01-11T07:04:25.611Z,7.05
2024-01-11T07:06:52.414Z,6.18
2024-01-11T07:09:19.476Z,7.53
2024-01-11T07:11:46.336Z,5.50
2024-01-11T07:14:13.169Z,9.45
2024-01-11T07:16:40.026Z,7.60
2024-01-11T07:19:07.288Z,7.72
2024-01-11T07:21:34.121Z,7.07
2024-01-11T07:24:00.942Z,5.82
2024-01-11T07:26:28.107Z,5.10
2024-01-11T07:28:57.991Z,5.65
2024-01-11T07:31:24.943Z,6.45
2024-01-11T07:33:52.060Z,9.40
2024-01-11T07:36:19.015Z,6.75
2024-01-11T07:38:45.790Z,8.20
2024-01-11T07:41:13.125Z,6.47
2024-01-11T07:43:49.203Z,6.25
2024-01-11T07:46:28.586Z,7.85
2024-01-11T07:49:00.758Z,7.40
2024-01-11T07:51:28.193Z,6.10
2024-01-11T07:53:54.890Z,4.95
2024-01-11T07:56:21.779Z,5.32
2024-01-11T07:58:50.048Z,6.53
2024-01-11T08:04:21.682Z,6.70
2024-01-11T08:06:48.493Z,6.88
2024-01-11T08:09:15.438Z,6.22
2024-01-11T08:11:50.397Z,6.10
2024-01-11T08:14:18.045Z,10.80
2024-01-11T08:16:44.776Z,9.57
2024-01-11T08:19:11.530Z,6.75
2024-01-11T08:21:38.229Z,8.60
2024-01-11T08:24:05.118Z,7.82
2024-01-11T08:26:32.250Z,7.70
2024-01-11T08:28:59.188Z,7.20
2024-01-11T08:31:25.961Z,8.85
2024-01-11T08:33:52.987Z,9.98
2024-01-11T08:36:19.906Z,7.38
2024-01-11T08:38:46.885Z,6.95
2024-01-11T08:41:13.829Z,5.25
2024-01-11T08:43:40.748Z,9.18
2024-01-11T08:46:07.644Z,7.40
2024-01-11T08:48:34.480Z,7.72
2024-01-11T08:51:01.915Z,8.90
2024-01-11T08:53:28.742Z,6.70
2024-01-11T08:55:55.446Z,5.22
2024-01-11T08:58:22.208Z,6.32
2024-01-11T09:00:49.096Z,6.82
2024-01-11T09:03:17.893Z,8.18
2024-01-11T09:05:45.162Z,8.30
2024-01-11T09:08:11.976Z,7.63
2024-01-11T09:10:38.976Z,7.03
2024-01-11T09:13:05.626Z,6.72
2024-01-11T09:15:32.494Z,5.93
2024-01-11T09:18:01.540Z,9.57
2024-01-11T09:20:28.536Z,6.47
2024-01-11T09:22:55.388Z,7.10
2024-01-11T09:25:22.101Z,7.85
2024-01-11T09:27:48.817Z,8.05
2024-01-11T09:30:15.774Z,13.25
2024-01-11T09:32:42.759Z,11.95
2024-01-11T09:35:11.857Z,7.40
2024-01-11T09:37:40.635Z,5.78
2024-01-11T09:40:11.623Z,7.57
2024-01-11T09:42:38.974Z,7.18
2024-01-11T09:45:10.997Z,6.07
2024-01-11T09:50:04.954Z,6.07
2024-01-11T09:52:34.364Z,9.18
2024-01-11T09:55:03.176Z,7.03
2024-01-11T09:57:32.099Z,7.55
2024-01-11T09:59:59.576Z,7.53
2024-01-11T10:02:29.895Z,8.40
2024-01-11T10:04:57.698Z,7.45
2024-01-11T10:07:26.089Z,7.85
2024-01-11T10:09:54.275Z,9.30
2024-01-11T10:12:26.314Z,9.45
2024-01-11T10:14:53.381Z,6.60
2024-01-11T10:17:23.167Z,9.50
2024-01-11T10:22:23.106Z,7.03
2024-01-11T10:24:51.737Z,5.97
2024-01-11T10:27:18.507Z,9.73
2024-01-11T10:29:46.815Z,5.82
2024-01-11T10:32:14.103Z,6.43
2024-01-11T10:34:42.515Z,7.75
2024-01-11T10:37:11.524Z,8.30
2024-01-11T10:39:40.978Z,7.53
2024-01-11T10:42:09.047Z,10.57
2024-01-11T10:44:37.352Z,8.32
2024-01-11T10:47:07.932Z,7.93
2024-01-11T10:49:36.877Z,7.75
2024-01-11T10:52:06.558Z,7.68
2024-01-11T10:54:35.774Z,8.63
2024-01-11T10:57:06.010Z,8.07
2024-01-11T10:59:34.472Z,11.02
2024-01-11T11:02:07.666Z,9.15
2024-01-11T11:04:36.150Z,9.18
2024-01-11T11:07:04.291Z,9.52
2024-01-11T11:09:33.782Z,7.80
2024-01-11T11:12:01.291Z,8.10
2024-01-11T11:14:29.411Z,9.00
2024-01-11T11:16:56.409Z,7.63
2024-01-11T11:19:23.234Z,9.85
2024-01-11T11:21:51.762Z,10.60
2024-01-11T11:24:18.549Z,12.13
2024-01-11T11:26:45.458Z,10.00
2024-01-11T11:29:12.316Z,7.90
2024-01-11T11:31:43.505Z,10.02
2024-01-11T11:34:14.361Z,11.10
2024-01-11T11:36:45.160Z,9.77
2024-01-11T11:39:14.909Z,9.52
2024-01-11T11:41:43.664Z,11.20
2024-01-11T11:44:15.223Z,10.60
2024-01-11T11:46:42.445Z,10.65
2024-01-11T11:49:11.272Z,12.20
2024-01-11T11:51:41.273Z,10.85
2024-01-11T11:54:10.811Z,10.32
2024-01-11T11:56:38.094Z,11.13
2024-01-11T11:59:05.280Z,11.18
2024-01-11T12:01:33.375Z,9.48
2024-01-11T12:04:00.189Z,13.45
2024-01-11T12:06:28.868Z,12.00
2024-01-11T12:08:57.882Z,9.98
2024-01-11T12:11:26.077Z,10.90
2024-01-11T12:13:54.614Z,10.38
2024-01-11T12:16:21.879Z,13.07
2024-01-11T12:18:50.484Z,12.07
2024-01-11T12:21:18.029Z,11.00
2024-01-11T12:23:45.674Z,12.70
2024-01-11T12:26:15.276Z,11.95
2024-01-11T12:28:44.643Z,12.75
2024-01-11T12:31:11.679Z,13.07
2024-01-11T12:33:39.953Z,11.98
2024-01-11T12:36:09.574Z,12.52
2024-01-11T12:38:36.885Z,13.35
2024-01-11T12:41:05.266Z,11.07
2024-01-11T12:43:32.473Z,9.43
2024-01-11T12:45:59.343Z,12.65
2024-01-11T12:48:26.414Z,13.35
2024-01-11T12:51:05.569Z,12.18
2024-01-11T12:53:40.915Z,9.65
2024-01-11T12:56:12.291Z,11.45
2024-01-11T12:58:39.443Z,12.50
2024-01-11T13:01:08.801Z,13.55
2024-01-11T13:03:40.932Z,12.27
2024-01-11T13:06:09.954Z,11.75
2024-01-11T13:08:43.636Z,8.57
2024-01-11T13:11:10.635Z,11.32
2024-01-11T13:13:37.799Z,10.30
2024-01-11T13:16:07.615Z,12.23
2024-01-11T13:18:34.498Z,11.90
2024-01-11T13:21:01.515Z,12.43
2024-01-11T13:23:28.394Z,12.68
2024-01-11T13:25:55.450Z,11.02
2024-01-11T13:28:23.550Z,9.25
2024-01-11T13:30:50.656Z,9.93
2024-01-11T13:33:19.033Z,12.77
2024-01-11T13:35:47.204Z,10.75
2024-01-11T13:38:14.276Z,10.10
2024-01-11T13:40:41.913Z,10.68
2024-01-11T13:43:09.055Z,12.18
2024-01-11T13:45:39.183Z,12.52
2024-01-11T13:48:07.242Z,13.10
2024-01-11T13:50:34.567Z,14.43
2024-01-11T13:53:02.919Z,10.98
2024-01-11T13:55:39.056Z,12.07
2024-01-11T13:58:06.652Z,10.52
2024-01-11T14:00:33.850Z,11.25
2024-01-11T14:03:00.817Z,11.32
2024-01-11T14:05:27.766Z,11.43
2024-01-11T14:07:59.575Z,11.18
2024-01-11T14:10:28.179Z,10.40
2024-01-11T14:12:55.289Z,10.32
2024-01-11T14:15:22.178Z,11.57
2024-01-11T14:17:49.416Z,12.15
2024-01-11T14:20:16.974Z,11.60
2024-01-11T14:22:52.476Z,12.48
2024-01-11T14:25:20.398Z,11.13
2024-01-11T14:27:48.415Z,10.25
2024-01-11T14:30:15.208Z,10.05
2024-01-11T14:32:42.511Z,11.85
2024-01-11T14:35:10.181Z,10.05
2024-01-11T14:37:38.681Z,9.18
2024-01-11T14:40:12.749Z,9.40
2024-01-11T14:42:40.186Z,10.30
2024-01-11T14:45:08.106Z,10.68
2024-01-11T14:47:35.904Z,10.77
2024-01-11T14:50:05.179Z,9.68
2024-01-11T14:52:32.485Z,9.75
2024-01-11T14:54:59.215Z,11.80
2024-01-11T14:57:26.030Z,9.95
2024-01-11T14:59:53.874Z,10.50
2024-01-11T15:02:21.552Z,9.85
2024-01-11T15:04:48.714Z,10.57
2024-01-11T15:07:15.806Z,11.23
2024-01-11T15:09:43.852Z,12.88
2024-01-11T15:12:10.947Z,13.48
2024-01-11T15:14:37.865Z,12.38
2024-01-11T15:17:05.064Z,13.00
2024-01-11T15:19:31.958Z,11.75
2024-01-11T15:21:58.809Z,11.70
2024-01-11T15:24:25.630Z,14.15
2024-01-11T15:26:52.474Z,11.65
2024-01-11T15:29:19.706Z,14.45
2024-01-11T15:31:47.812Z,12.80
2024-01-11T15:34:16.096Z,12.15
2024-01-11T15:36:44.107Z,11.57
2024-01-11T15:41:42.294Z,11.02
2024-01-11T15:44:09.262Z,10.82
2024-01-11T15:46:36.273Z,10.48
2024-01-11T15:49:03.121Z,11.60
2024-01-11T15:51:30.490Z,12.13
2024-01-11T15:53:57.553Z,12.80
2024-01-11T15:56:24.294Z,12.35
2024-01-11T15:58:51.188Z,12.55
2024-01-11T16:01:17.998Z,12.65
2024-01-11T16:03:47.206Z,12.45
2024-01-11T16:06:14.051Z,10.30
2024-01-11T16:08:40.813Z,13.23
2024-01-11T16:11:07.607Z,10.52
2024-01-11T16:13:34.387Z,11.10
2024-01-11T16:16:01.255Z,13.95
2024-01-11T16:18:28.175Z,12.80
2024-01-11T16:20:55.974Z,11.63
2024-01-11T16:23:23.488Z,12.02
2024-01-11T16:25:50.249Z,13.60
2024-01-11T16:28:17.042Z,12.13
2024-01-11T16:30:43.934Z,12.13
2024-01-11T16:33:11.100Z,14.63
2024-01-11T16:35:45.081Z,11.63
2024-01-11T16:38:16.600Z,11.25
2024-01-11T16:40:43.306Z,11.85
2024-01-11T16:43:13.147Z,12.75
2024-01-11T16:45:40.348Z,15.95
2024-01-11T16:48:11.761Z,14.43
2024-01-11T16:50:38.778Z,11.95
2024-01-11T16:53:05.609Z,13.10
2024-01-11T16:55:33.391Z,15.85
2024-01-11T16:58:01.606Z,12.13
2024-01-11T17:00:29.281Z,13.35
2024-01-11T17:02:56.150Z,15.65
2024-01-11T17:05:23.025Z,14.20
2024-01-11T17:07:51.198Z,12.70
2024-01-11T17:10:17.953Z,12.13
2024-01-11T17:12:44.675Z,12.02
2024-01-11T17:15:12.704Z,16.48
2024-01-11T17:17:39.739Z,15.13
2024-01-11T17:20:08.009Z,17.35
2024-01-11T17:22:35.054Z,13.25
2024-01-11T17:25:02.032Z,12.65
2024-01-11T17:27:30.067Z,10.52
2024-01-11T17:29:56.868Z,11.13
2024-01-11T17:32:23.628Z,10.30
2024-01-11T17:34:54.105Z,12.43
2024-01-11T17:37:22.091Z,12.52
2024-01-11T17:39:49.419Z,12.32
2024-01-11T17:42:16.172Z,14.07
2024-01-11T17:44:43.006Z,10.52
2024-01-11T17:47:10.142Z,12.50
2024-01-11T17:49:39.740Z,11.50
2024-01-11T17:52:08.078Z,12.95
2024-01-11T17:54:35.907Z,12.38
2024-01-11T17:57:02.821Z,10.93
2024-01-11T17:59:29.594Z,12.07
2024-01-11T18:01:56.420Z,11.70
2024-01-11T18:04:23.979Z,13.32
2024-01-11T18:06:51.439Z,12.63
2024-01-11T18:09:18.554Z,11.05
2024-01-11T18:11:46.105Z,13.55
2024-01-11T18:14:13.353Z,12.02
2024-01-11T18:16:40.517Z,11.05
2024-01-11T18:19:13.408Z,12.45
2024-01-11T18:21:40.970Z,12.13
2024-01-11T18:24:07.754Z,12.98
2024-01-11T18:26:34.488Z,14.07
2024-01-11T18:29:01.279Z,13.50
2024-01-11T18:31:28.096Z,12.38
2024-01-11T18:33:56.231Z,12.45
2024-01-11T18:36:24.397Z,12.40
2024-01-11T18:38:53.899Z,15.73
2024-01-11T18:41:22.160Z,14.85
2024-01-11T18:43:49.237Z,14.25
2024-01-11T18:46:16.399Z,13.52
2024-01-11T18:48:43.903Z,14.63
2024-01-11T18:51:10.792Z,12.60
2024-01-11T18:53:37.761Z,15.65
2024-01-11T18:56:04.840Z,13.60
2024-01-11T18:58:31.651Z,13.27
2024-01-11T19:00:58.502Z,13.98
2024-01-11T19:03:25.567Z,17.42
2024-01-11T19:05:52.666Z,17.63
2024-01-11T19:08:19.706Z,14.15
2024-01-11T19:10:46.507Z,13.50
2024-01-11T19:13:13.291Z,12.80
2024-01-11T19:15:40.281Z,13.48
2024-01-11T19:18:09.478Z,13.40
2024-01-11T19:20:37.046Z,12.88
2024-01-11T19:23:04.321Z,14.95
2024-01-11T19:25:33.176Z,14.88
2024-01-11T19:28:01.530Z,12.25
2024-01-11T19:30:34.082Z,13.02
2024-01-11T19:33:04.402Z,12.85
2024-01-11T19:35:31.512Z,15.77
2024-01-11T19:37:58.188Z,13.25
2024-01-11T19:40:25.699Z,13.40
2024-01-11T19:42:52.402Z,15.30
2024-01-11T19:45:19.083Z,14.60
2024-01-11T19:47:45.993Z,16.05
2024-01-11T19:50:12.885Z,18.83
2024-01-11T19:52:39.959Z,14.77
2024-01-11T19:55:06.995Z,14.40
2024-01-11T19:57:33.834Z,11.95
2024-01-11T20:00:00.730Z,17.27
2024-01-11T20:02:27.650Z,13.75
2024-01-11T20:04:56.463Z,14.93
2024-01-11T20:07:25.055Z,15.23
2024-01-11T20:09:51.851Z,17.48
2024-01-11T20:12:18.626Z,14.57
2024-01-11T20:14:45.676Z,15.45
2024-01-11T20:17:12.487Z,15.07
2024-01-11T20:19:39.959Z,14.32
2024-01-11T20:22:06.674Z,14.68
2024-01-11T20:24:33.532Z,14.85
2024-01-11T20:27:04.413Z,14.80
2024-01-11T20:29:31.861Z,17.83
2024-01-11T20:31:58.762Z,19.88
2024-01-11T20:34:25.596Z,21.85
2024-01-11T20:36:52.440Z,18.75
2024-01-11T20:39:19.421Z,15.82
2024-01-11T20:41:46.241Z,17.08
2024-01-11T20:44:13.204Z,14.23
2024-01-11T20:46:40.874Z,16.00
2024-01-11T20:49:07.789Z,14.10
2024-01-11T20:51:34.624Z,18.13
2024-01-11T20:54:02.319Z,15.88
2024-01-11T20:56:31.620Z,15.35
2024-01-11T20:58:58.453Z,17.13
2024-01-11T21:01:25.291Z,14.55
2024-01-11T21:03:52.100Z,18.50
2024-01-11T21:06:19.025Z,16.38
2024-01-11T21:08:45.930Z,17.65
2024-01-11T21:11:14.095Z,16.50
2024-01-11T21:13:40.882Z,18.40
2024-01-11T21:16:07.636Z,17.33
2024-01-11T21:18:34.913Z,16.58
2024-01-11T21:21:02.838Z,14.52
2024-01-11T21:23:29.805Z,15.65
2024-01-11T21:25:57.360Z,17.73
2024-01-11T21:28:24.101Z,18.50
2024-01-11T21:30:51.012Z,19.80
2024-01-11T21:33:17.955Z,20.48
2024-01-11T21:35:45.060Z,14.95
2024-01-11T21:38:12.011Z,13.70
2024-01-11T21:40:40.587Z,16.67
2024-01-11T21:43:08.644Z,18.45
2024-01-11T21:45:35.542Z,17.45
2024-01-11T21:48:02.318Z,15.63
2024-01-11T21:50:31.766Z,16.42
2024-01-11T21:52:59.224Z,17.10
2024-01-11T21:55:26.056Z,16.00
2024-01-11T21:57:55.018Z,16.38
2024-01-11T22:00:21.914Z,16.75
2024-01-11T22:02:48.746Z,18.75
2024-01-11T22:05:15.651Z,16.80
2024-01-11T22:07:42.406Z,13.93
2024-01-11T22:10:09.644Z,17.65
2024-01-11T22:12:36.324Z,15.27
2024-01-11T22:15:06.501Z,16.00
2024-01-11T22:17:35.671Z,16.02
2024-01-11T22:20:02.588Z,14.10
2024-01-11T22:22:29.330Z,14.50
2024-01-11T22:24:56.035Z,14.00
2024-01-11T22:27:22.802Z,13.75
2024-01-11T22:29:49.674Z,14.10
2024-01-11T22:32:16.498Z,14.68
2024-01-11T22:34:43.329Z,13.65
2024-01-11T22:37:10.040Z,14.85
2024-01-11T22:39:36.890Z,14.57
2024-01-11T22:42:05.067Z,14.32
2024-01-11T22:44:31.969Z,14.40
2024-01-11T22:46:58.663Z,14.45
2024-01-11T22:49:26.145Z,13.77
2024-01-11T22:51:53.128Z,12.88
2024-01-11T22:54:19.839Z,14.35
2024-01-11T22:56:46.626Z,12.75
2024-01-11T22:59:13.496Z,13.10
2024-01-11T23:01:42.957Z,12.80
2024-01-11T23:04:09.733Z,13.60
2024-01-11T23:06:36.707Z,14.40
2024-01-11T23:09:03.577Z,11.48
2024-01-11T23:11:32.513Z,13.57
2024-01-11T23:13:59.319Z,14.00
2024-01-11T23:16:27.970Z,11.07
2024-01-11T23:18:55.783Z,12.77
2024-01-11T23:21:22.612Z,12.45
2024-01-11T23:23:49.585Z,13.50
2024-01-11T23:26:16.435Z,13.65
2024-01-11T23:28:43.130Z,13.13
2024-01-11T23:31:09.903Z,11.88
2024-01-11T23:33:36.859Z,12.32
2024-01-11T23:36:04.028Z,12.75
2024-01-11T23:38:30.791Z,12.57
2024-01-11T23:40:57.500Z,11.65
2024-01-11T23:43:24.329Z,11.90
2024-01-11T23:45:51.341Z,13.18
2024-01-11T23:48:18.229Z,11.30
2024-01-11T23:50:45.133Z,12.50
2024-01-11T23:53:12.039Z,11.07
2024-01-11T23:55:38.900Z,10.68
2024-01-11T23:58:05.593Z,13.38
